Latest Weather Observations for St Helens

IDT60801

Issued at 10:32 am EDT Friday 9 December 2016 (issued every 30 minutes, with the page automatically refreshed every 10 minutes)

About weather observations | Map of weather stations | Latest weather observations for TAS | Other Formats
Station Details ID: 092120 Name: ST HELENS AERODROME Lat: -41.34 Lon: 148.28 Height: 48.0 m
Data from the previous 72 hours. | See also: Recent months at St Helens
Date/Time
EDT
Temp
°C
App
Temp
°C
Dew
Point
°C
Rel
Hum
%
Delta-T
°C
Wind Press
QNH
hPa
Press
MSL
hPa
Rain since
9am
mm
Dir  Spd
km/h
Gust
km/h
Spd
kts
Gust
kts
09/10:30am 15.0 8.4 1.9 41 5.8 SSW 26 41 14 22 1006.4 - 0.0
09/10:00am 14.3 5.9 1.6 42 5.5 SSW 35 57 19 31 1006.0 - 0.0
09/09:30am 13.7 6.2 1.4 43 5.3 SSW 30 48 16 26 1005.5 - 0.0
09/09:04am 12.9 5.8 1.3 45 5.0 SSW 28 57 15 31 1005.2 - 0.0
09/09:00am 13.3 6.6 1.3 44 5.2 SSW 26 57 14 31 1005.1 1005.1 18.0
09/08:30am 12.0 3.9 -0.2 43 5.0 SSW 32 61 17 33 1004.7 - 18.0
09/08:18am 12.3 5.1 1.0 46 4.8 SW 28 46 15 25 1004.5 - 18.0
09/08:00am 12.3 6.8 1.6 48 4.6 SSW 20 35 11 19 1004.2 - 18.0
09/07:30am 11.5 4.7 0.9 48 4.4 SSW 26 44 14 24 1003.4 - 18.0
09/07:00am 12.0 7.8 1.9 50 4.3 SSW 13 24 7 13 1002.6 - 18.0
09/06:30am 10.9 5.6 1.7 53 3.9 SSW 19 30 10 16 1001.6 - 18.0
09/06:00am 10.7 4.8 1.8 54 3.8 SSW 22 39 12 21 1000.7 1000.7 18.0
09/05:55am 10.6 3.2 1.7 54 3.8 SW 30 39 16 21 1000.5 - 18.0
09/05:30am 10.2 6.9 2.6 59 3.3 SSW 9 19 5 10 999.8 - 18.0
09/05:00am 11.2 6.0 2.5 55 3.8 SW 19 32 10 17 998.9 - 18.0
09/04:30am 11.6 5.1 2.6 54 3.9 SW 26 43 14 23 997.8 - 18.0
09/04:00am 12.1 5.2 2.8 53 4.1 SW 28 48 15 26 996.8 - 18.0
09/03:30am 12.1 6.9 3.3 55 3.9 SSW 20 37 11 20 996.6 - 18.0
09/03:00am 12.7 6.7 3.4 53 4.2 SW 24 39 13 21 995.8 995.7 18.0
09/02:30am 12.8 11.1 5.9 63 3.3 E 4 9 2 5 995.3 - 18.0
09/02:00am 12.9 11.2 6.0 63 3.3 W 4 11 2 6 994.6 - 18.0
09/01:30am 13.2 9.9 6.3 63 3.3 SW 13 20 7 11 993.7 - 18.0
09/01:00am 13.9 10.4 7.0 63 3.4 W 15 24 8 13 993.2 - 18.0
09/12:30am 13.5 11.0 8.1 70 2.7 NNW 11 17 6 9 992.8 - 18.0
09/12:00am 13.7 10.4 7.9 68 2.9 W 15 28 8 15 991.8 991.7 18.0
 
Date/Time
EDT
Temp
°C
App
Temp
°C
Dew
Point
°C
Rel
Hum
%
Delta-T
°C
Wind Press
QNH
hPa
Press
MSL
hPa
Rain since
9am
mm
Dir  Spd
km/h
Gust
km/h
Spd
kts
Gust
kts
08/11:30pm 13.7 10.0 8.1 69 2.8 WNW 17 30 9 16 991.4 - 18.0
08/11:00pm 13.8 10.9 8.0 68 2.9 W 13 28 7 15 990.5 - 18.0
08/10:30pm 14.1 10.1 8.3 68 2.9 W 19 35 10 19 989.7 - 18.0
08/10:00pm 14.0 9.1 8.4 69 2.8 W 24 44 13 24 989.6 - 18.0
08/09:50pm 14.1 8.2 8.9 71 2.6 W 30 56 16 30 988.5 - 18.0
08/09:30pm 14.2 7.3 9.0 71 2.6 WNW 35 59 19 32 986.5 - 18.0
08/09:00pm 14.4 8.5 9.0 70 2.8 W 30 56 16 30 987.8 987.7 18.0
08/08:56pm 14.5 9.0 9.3 71 2.7 W 28 56 15 30 987.9 - 18.0
08/08:30pm 14.4 9.3 9.2 71 2.7 W 26 43 14 23 988.8 - 18.0
08/08:04pm 14.4 9.0 9.6 73 2.5 WNW 28 52 15 28 987.5 - 18.0
08/08:00pm 14.4 9.4 9.6 73 2.5 WNW 26 48 14 26 987.7 - 18.0
08/07:30pm 14.7 8.0 9.7 72 2.6 NW 35 54 19 29 987.0 - 18.0
08/07:00pm 15.6 8.7 10.4 71 2.7 NW 37 57 20 31 988.0 - 18.0
08/06:30pm 15.5 10.1 10.9 74 2.5 NW 30 54 16 29 988.3 - 18.0
08/06:00pm 15.3 9.6 11.1 76 2.3 NW 32 52 17 28 988.6 988.5 18.0
08/05:35pm 16.2 10.2 10.9 71 2.8 NW 33 56 18 30 988.9 - 18.0
08/05:30pm 16.0 10.7 11.4 74 2.5 NW 30 46 16 25 989.0 - 18.0
08/05:01pm 16.4 10.7 11.1 71 2.9 NW 32 50 17 27 989.5 - 18.0
08/05:00pm 16.7 10.9 11.4 71 2.9 NW 33 50 18 27 989.6 - 18.0
08/04:30pm 17.1 10.6 10.5 65 3.5 NW 35 61 19 33 989.6 - 18.0
08/04:00pm 17.4 12.0 10.8 65 3.5 NW 30 52 16 28 990.1 - 18.0
08/03:35pm 17.5 12.6 11.3 67 3.4 NW 28 50 15 27 990.4 - 18.0
08/03:30pm 17.5 13.8 12.8 74 2.6 NW 24 39 13 21 990.5 - 18.0
08/03:04pm 16.3 11.5 11.7 74 2.5 WNW 28 46 15 25 990.7 - 18.0
08/03:00pm 15.8 11.9 12.0 78 2.1 WNW 24 41 13 22 990.7 990.6 18.0
08/02:49pm 15.8 11.4 14.0 89 1.0 WNW 30 50 16 27 991.1 - 18.0
08/02:39pm 15.9 11.4 13.9 88 1.1 NNW 30 50 16 27 990.5 - 17.8
08/02:30pm 15.7 11.5 14.6 93 0.6 N 30 48 16 26 991.0 - 17.8
08/02:23pm 15.5 11.6 14.5 94 0.6 N 28 48 15 26 991.0 - 17.8
08/02:00pm 15.4 11.6 14.8 96 0.3 N 28 44 15 24 991.3 - 17.2
08/01:30pm 15.4 13.4 14.9 97 0.3 N 19 28 10 15 992.0 - 15.4
08/01:00pm 15.3 13.1 15.0 98 0.2 N 20 35 11 19 993.1 - 14.8
08/12:30pm 15.1 13.0 14.8 98 0.2 N 19 28 10 15 993.0 - 12.6
08/12:13pm 15.2 13.5 14.7 97 0.3 N 17 26 9 14 993.5 - 10.8
08/12:00pm 15.0 13.3 14.7 98 0.2 N 17 22 9 12 994.0 993.9 10.2
08/11:50am 15.0 13.3 14.7 98 0.2 N 17 24 9 13 994.4 - 9.6
08/11:30am 15.1 13.4 14.6 97 0.3 N 17 24 9 13 994.5 - 8.4
08/11:00am 15.6 13.5 14.8 95 0.5 N 19 28 10 15 995.4 - 7.2
08/10:30am 15.6 12.7 14.1 91 0.9 NNW 22 37 12 20 996.8 - 5.2
08/10:00am 15.8 13.7 14.7 93 0.6 NNW 19 33 10 18 997.7 - 3.2
08/09:30am 15.8 13.5 14.2 90 0.9 NNW 19 30 10 16 998.6 - 1.6
08/09:15am 15.9 12.8 14.4 91 0.9 NNW 24 37 13 20 999.0 - 1.0
08/09:00am 14.9 14.7 14.6 98 0.2 NW 9 19 5 10 999.6 999.6 3.4
08/08:45am 14.4 14.4 14.1 98 0.2 W 7 13 4 7 1000.2 - 2.6
08/08:30am 14.3 13.8 13.7 96 0.3 W 9 13 5 7 1000.4 - 1.8
08/08:17am 14.2 13.6 13.4 95 0.4 WNW 9 13 5 7 1000.7 - 1.0
08/08:00am 14.0 13.7 12.7 92 0.7 W 6 11 3 6 1000.8 - 0.2
08/07:30am 14.3 13.3 12.3 88 1.1 NW 9 15 5 8 1000.9 - 0.0
08/07:00am 14.5 13.9 12.4 87 1.1 W 7 13 4 7 1001.4 - 0.0
08/06:30am 13.6 12.6 11.1 85 1.3 NNW 7 15 4 8 1001.2 - 0.0
08/06:00am 12.4 11.2 10.3 87 1.1 NNW 7 13 4 7 1001.9 1001.9 0.0
08/05:30am 12.6 11.5 10.0 84 1.3 W 6 11 3 6 1002.5 - 0.0
08/05:24am 12.7 11.6 10.1 84 1.3 W 6 11 3 6 1002.8 - 0.0
08/05:00am 12.4 11.1 10.1 86 1.2 WNW 7 11 4 6 1003.2 - 0.0
08/04:30am 11.9 11.3 10.3 90 0.8 W 4 9 2 5 1003.5 - 0.0
08/04:00am 12.0 10.5 10.7 92 0.7 W 9 15 5 8 1004.3 - 0.0
08/03:30am 12.2 10.7 10.6 90 0.8 W 9 17 5 9 1004.6 - 0.0
08/03:00am 12.5 11.2 11.1 91 0.7 W 9 17 5 9 1005.1 1005.1 0.0
08/02:30am 12.5 10.3 10.9 90 0.8 NW 13 22 7 12 1005.7 - 0.0
08/02:00am 12.8 10.3 11.2 90 0.8 NW 15 28 8 15 1006.7 - 0.0
08/01:30am 12.8 10.7 11.0 89 0.9 NW 13 24 7 13 1007.1 - 0.0
08/01:00am 12.8 11.9 10.7 87 1.1 WNW 6 11 3 6 1007.6 - 0.0
08/12:30am 12.7 11.1 10.1 84 1.3 N 9 13 5 7 1008.1 - 0.0
08/12:00am 13.3 11.7 10.3 82 1.6 WNW 9 17 5 9 1008.0 1008.0 0.0
 
Date/Time
EDT
Temp
°C
App
Temp
°C
Dew
Point
°C
Rel
Hum
%
Delta-T
°C
Wind Press
QNH
hPa
Press
MSL
hPa
Rain since
9am
mm
Dir  Spd
km/h
Gust
km/h
Spd
kts
Gust
kts
07/11:30pm 13.9 11.5 10.1 78 2.0 NNW 13 20 7 11 1008.6 - 0.0
07/11:00pm 14.4 12.8 10.2 76 2.2 NNW 9 15 5 8 1008.1 - 0.0
07/10:30pm 15.3 13.3 10.3 72 2.6 NW 11 15 6 8 1008.3 - 0.0
07/10:00pm 15.5 13.9 10.3 71 2.7 W 9 15 5 8 1008.7 - 0.0
07/09:30pm 15.7 14.1 10.2 70 2.9 W 9 15 5 8 1009.0 - 0.0
07/09:00pm 16.2 14.2 10.3 68 3.1 WNW 11 17 6 9 1009.2 1009.1 0.0
07/08:30pm 16.8 14.9 10.4 66 3.4 WNW 11 19 6 10 1009.1 - 0.0
07/08:00pm 17.5 14.7 10.1 62 3.9 W 15 28 8 15 1009.0 - 0.0
07/07:30pm 18.5 16.2 10.3 59 4.4 W 13 20 7 11 1008.9 - 0.0
07/07:00pm 19.2 16.5 10.5 57 4.7 W 15 30 8 16 1009.1 - 0.0
07/06:30pm 19.5 16.9 10.8 57 4.7 W 15 26 8 14 1009.2 - 0.0
07/06:00pm 19.1 15.0 10.1 56 4.8 W 22 35 12 19 1009.4 1009.3 0.0
07/05:30pm 19.5 16.0 10.2 55 5.0 WSW 19 35 10 19 1009.4 - 0.0
07/05:00pm 19.7 15.9 11.2 58 4.7 WNW 22 37 12 20 1009.6 - 0.0
07/04:30pm 19.2 15.4 11.0 59 4.5 WNW 22 37 12 20 1010.0 - 0.0
07/03:30pm 20.8 20.9 10.3 51 5.7 CALM 0 0 0 0 1010.0 - 0.0
07/03:00pm 20.3 16.7 10.4 53 5.4 WNW 20 33 11 18 1010.0 1009.9 0.0
07/02:30pm 20.6 17.0 9.8 50 5.8 NW 19 28 10 15 1010.1 - 0.0
07/02:00pm 19.6 16.4 10.0 54 5.1 NE 17 20 9 11 1010.4 - 0.0
07/01:30pm 19.7 15.5 9.6 52 5.4 ENE 22 30 12 16 1010.8 - 0.0
07/01:00pm 20.5 15.6 6.8 41 7.0 NE 22 30 12 16 1011.1 - 0.0
07/12:30pm 20.9 16.3 6.4 39 7.3 NE 20 28 11 15 1011.6 - 0.0
07/12:00pm 20.3 16.0 7.7 44 6.5 NE 20 24 11 13 1011.9 1011.8 0.0
07/11:30am 19.7 15.7 6.8 43 6.5 ENE 17 24 9 13 1012.2 - 0.0
07/11:00am 19.6 16.5 5.6 40 6.9 N 11 19 6 10 1012.3 - 0.0
07/10:30am 18.4 15.8 5.9 44 6.1 N 9 15 5 8 1012.6 - 0.0
07/10:00am 18.1 15.7 6.9 48 5.6 NNW 9 13 5 7 1012.8 - 0.0
07/09:30am 17.9 15.8 8.2 53 5.0 NNW 9 13 5 7 1012.9 - 0.0
07/09:00am 17.0 15.3 9.7 62 3.8 WNW 9 13 5 7 1013.0 1012.9 0.0
07/08:30am 15.4 13.3 8.4 63 3.5 NW 9 13 5 7 1012.9 - 0.0
07/08:00am 14.3 12.5 9.3 72 2.6 NW 9 13 5 7 1012.7 - 0.0
07/07:30am 12.9 11.6 9.9 82 1.5 NW 7 11 4 6 1012.5 - 0.0
07/07:00am 11.7 10.4 9.9 89 0.9 NW 7 15 4 8 1012.4 - 0.0
07/06:30am 11.1 10.0 10.0 93 0.6 NNW 6 11 3 6 1012.1 - 0.0
07/06:00am 10.8 8.8 10.3 97 0.3 NNW 11 15 6 8 1011.8 1011.7 0.0
07/05:30am 11.2 9.7 10.4 95 0.4 NW 9 13 5 7 1011.5 - 0.0
07/05:00am 11.2 10.2 10.3 94 0.5 W 6 9 3 5 1011.3 - 0.0
07/04:30am 11.8 10.3 10.4 91 0.7 WNW 9 15 5 8 1011.2 - 0.0
07/04:00am 11.8 11.2 10.4 91 0.7 WSW 4 7 2 4 1011.1 - 0.0
07/03:30am 12.3 11.4 10.7 90 0.8 W 6 9 3 5 1011.2 - 0.0
07/03:00am 12.5 11.5 11.1 91 0.7 NW 7 11 4 6 1011.3 1011.2 0.0
07/02:30am 12.4 11.4 11.0 91 0.7 WNW 7 11 4 6 1011.5 - 0.0
07/02:00am 12.7 12.7 11.1 90 0.8 SW 2 11 1 6 1011.7 - 0.0
07/01:30am 13.4 12.5 11.3 87 1.1 NW 7 11 4 6 1011.8 - 0.0
07/01:00am 13.6 12.6 10.2 80 1.8 N 6 7 3 4 1011.9 - 0.0
07/12:30am 13.9 14.1 10.5 80 1.8 CALM 0 0 0 0 1012.0 - 0.0
07/12:00am 13.9 14.1 10.5 80 1.8 CALM 0 0 0 0 1012.1 1012.0 0.0
 
Date/Time
EDT
Temp
°C
App
Temp
°C
Dew
Point
°C
Rel
Hum
%
Delta-T
°C
Wind Press
QNH
hPa
Press
MSL
hPa
Rain since
9am
mm
Dir  Spd
km/h
Gust
km/h
Spd
kts
Gust
kts
06/11:30pm 13.8 13.9 10.2 79 1.9 CALM 0 0 0 0 1012.0 - 0.0
06/11:00pm 13.9 14.1 10.5 80 1.8 CALM 0 0 0 0 1012.1 - 0.0
06/10:30pm 14.1 13.2 10.5 79 1.9 S 6 9 3 5 1012.1 - 0.0
06/10:00pm 14.2 13.3 10.6 79 1.9 S 6 9 3 5 1012.1 - 0.0
06/09:30pm 14.2 13.4 11.2 82 1.6 E 6 7 3 4 1011.9 - 0.0
06/09:00pm 14.2 13.4 11.0 81 1.7 E 6 7 3 4 1011.6 1011.5 0.0
06/08:30pm 14.3 14.6 10.9 80 1.8 CALM 0 6 0 3 1011.4 - 0.0
06/08:00pm 14.4 13.4 11.0 80 1.8 ESE 7 13 4 7 1010.9 - 0.0
06/07:30pm 14.5 13.4 10.7 78 2.0 SE 7 13 4 7 1010.4 - 0.0
06/07:00pm 14.9 13.5 10.9 77 2.1 SE 9 17 5 9 1009.9 - 0.0
06/06:30pm 14.6 12.0 10.8 78 2.0 SSE 15 24 8 13 1009.5 - 0.0
06/06:00pm 14.8 11.8 10.8 77 2.1 S 17 32 9 17 1009.1 1009.0 0.0
06/05:30pm 15.2 11.5 11.4 78 2.0 S 22 35 12 19 1008.6 - 0.0
06/05:00pm 15.2 11.5 11.4 78 2.0 S 22 37 12 20 1008.3 - 0.0
06/04:30pm 16.4 12.8 11.8 74 2.5 S 22 35 12 19 1007.8 - 0.0
06/04:09pm 16.3 11.6 12.1 76 2.3 SSE 28 48 15 26 1007.6 - 0.0
06/04:00pm 16.6 12.6 11.9 74 2.6 SSE 24 41 13 22 1007.6 - 0.0
06/03:31pm 16.3 11.6 12.1 76 2.3 S 28 52 15 28 1007.6 - 0.0
06/03:30pm 16.7 12.5 12.3 75 2.4 S 26 50 14 27 1007.5 - 0.0
06/03:18pm 18.2 13.9 13.3 73 2.8 S 28 52 15 28 1007.3 - 0.0
06/03:00pm 21.0 18.5 9.6 48 6.1 ENE 13 20 7 11 1006.8 1006.8 0.0
06/02:30pm 20.3 16.9 9.2 49 5.9 NNE 17 26 9 14 1006.2 - 0.0
06/02:00pm 21.1 16.9 9.7 48 6.1 NNE 22 32 12 17 1006.2 - 0.0
06/01:30pm 20.6 17.5 8.9 47 6.2 N 15 24 8 13 1006.4 - 0.0
06/01:00pm 20.6 18.1 9.8 50 5.8 N 13 19 7 10 1006.9 - 0.0
06/12:30pm 20.4 17.8 9.3 49 5.9 NW 13 26 7 14 1007.6 - 0.0
06/12:00pm 19.4 16.5 9.6 53 5.2 NNW 15 22 8 12 1007.7 1007.7 0.0
06/11:30am 19.8 18.3 11.8 60 4.4 NW 11 19 6 10 1008.0 - 0.0
06/11:00am 18.6 16.4 10.7 60 4.3 NW 13 19 7 10 1008.3 - 0.0

Other Formats:

Comma delimited format used in spreadsheet applications
http://www.bom.gov.au/fwo/IDT60801/IDT60801.95981.axf

JavaScript Object Notation format (JSON) in row-major order
http://www.bom.gov.au/fwo/IDT60801/IDT60801.95981.json